Time;durP1;ratioP1;P1;durP2;ratioP2;P2;SDS_P1;SDS_P2;PMS_P1;PMS_P2;Temp;Humidity;BMP_temperature;BMP_pressure;BME280_temperature;BME280_humidity;BME280_pressure;Samples;Min_cycle;Max_cycle;Signal;HPM_P1;HPM_P2
2021/11/24 00:00:22;;;;;;;8.75;4.87;;;;;;;5.69;63.69;100673.66;1681455;85;21611;-65
2021/11/24 00:02:49;;;;;;;8.53;4.75;;;;;;;5.44;63.66;100681.53;1683656;84;21087;-62
2021/11/24 00:05:17;;;;;;;8.23;4.75;;;;;;;5.58;63.37;100683.69;1686934;84;21841;-63
2021/11/24 00:07:44;;;;;;;8.58;4.87;;;;;;;5.77;61.93;100685.41;1681214;85;20907;-63
2021/11/24 00:10:12;;;;;;;8.58;5.10;;;;;;;5.86;61.35;100687.13;1679682;85;21037;-62
2021/11/24 00:12:39;;;;;;;7.60;4.12;;;;;;;5.93;60.35;100690.81;1662270;85;21025;-63
2021/11/24 00:15:09;;;;;;;9.68;4.80;;;;;;;5.89;59.87;100695.91;1680899;84;20966;-63
2021/11/24 00:17:36;;;;;;;8.55;5.22;;;;;;;5.73;60.34;100700.39;1680470;85;21149;-64
2021/11/24 00:20:06;;;;;;;9.20;5.03;;;;;;;5.80;60.22;100700.16;1679962;84;20943;-71
2021/11/24 00:22:33;;;;;;;7.95;3.92;;;;;;;5.96;59.18;100697.00;1647237;86;21049;-62
2021/11/24 00:25:00;;;;;;;7.00;4.15;;;;;;;6.31;57.74;100698.88;1647995;86;21036;-63
2021/11/24 00:27:28;;;;;;;9.90;4.53;;;;;;;6.28;56.70;100697.06;1680811;85;20970;-64
2021/11/24 00:29:56;;;;;;;7.67;4.40;;;;;;;6.15;57.40;100700.48;1680491;85;22380;-70
2021/11/24 00:32:24;;;;;;;6.65;3.80;;;;;;;6.08;57.62;100702.33;1679885;85;20957;-63
2021/11/24 00:34:52;;;;;;;7.65;4.35;;;;;;;6.25;57.34;100703.36;1681483;85;20957;-63
2021/11/24 00:37:19;;;;;;;7.55;4.37;;;;;;;6.21;56.99;100708.94;1681151;84;21523;-62
2021/11/24 00:39:46;;;;;;;8.18;4.30;;;;;;;6.36;56.16;100703.62;1681180;85;21613;-65
2021/11/24 00:42:14;;;;;;;7.85;4.40;;;;;;;5.92;56.60;100716.81;1680765;85;22622;-63
2021/11/24 00:44:42;;;;;;;8.30;4.67;;;;;;;5.55;58.33;100708.05;1681363;85;21147;-65
2021/11/24 00:47:12;;;;;;;7.17;4.20;;;;;;;5.90;57.63;100718.23;1680865;85;20942;-62
2021/11/24 00:49:39;;;;;;;6.95;3.90;;;;;;;6.02;56.68;100718.45;1679249;85;21049;-70
2021/11/24 00:52:08;;;;;;;6.90;3.67;;;;;;;6.27;55.49;100713.08;1680866;85;21055;-70
2021/11/24 00:54:35;;;;;;;7.22;4.10;;;;;;;6.22;54.75;100711.89;1680722;85;21149;-63
2021/11/24 00:57:03;;;;;;;7.35;3.72;;;;;;;6.44;53.88;100712.80;1681075;85;21113;-63
2021/11/24 00:59:30;;;;;;;6.40;3.70;;;;;;;6.55;53.25;100706.58;1680899;85;21084;-63
2021/11/24 01:01:57;;;;;;;7.47;3.85;;;;;;;6.39;52.80;100710.30;1680132;85;21088;-68
2021/11/24 01:04:24;;;;;;;6.15;3.90;;;;;;;6.18;53.30;100711.84;1678628;84;21073;-62
2021/11/24 01:06:54;;;;;;;6.90;3.47;;;;;;;6.13;53.28;100710.95;1672949;85;21010;-63
2021/11/24 01:09:21;;;;;;;7.25;3.70;;;;;;;5.72;53.90;100719.45;1671940;85;21571;-63
2021/11/24 01:11:48;;;;;;;9.48;4.28;;;;;;;5.55;54.60;100720.16;1672404;85;21579;-73
2021/11/24 01:14:16;;;;;;;9.43;4.62;;;;;;;5.64;54.90;100724.97;1672155;85;22641;-70
2021/11/24 01:16:44;;;;;;;6.87;3.65;;;;;;;5.48;54.92;100732.82;1672408;85;20977;-64
2021/11/24 01:19:11;;;;;;;9.15;3.80;;;;;;;5.80;54.78;100733.80;1672856;85;21067;-65
2021/11/24 01:21:39;;;;;;;7.37;4.12;;;;;;;5.92;53.90;100740.94;1671714;85;21065;-68
2021/11/24 01:24:07;;;;;;;7.55;3.95;;;;;;;6.00;53.25;100742.34;1672923;85;21033;-61
2021/11/24 01:26:35;;;;;;;6.85;4.03;;;;;;;5.96;53.41;100751.34;1671861;85;21089;-63
2021/11/24 01:29:05;;;;;;;6.70;3.52;;;;;;;5.89;53.51;100746.84;1672248;85;21018;-62
2021/11/24 01:31:32;;;;;;;9.50;4.30;;;;;;;6.10;52.93;100750.09;1672003;85;21176;-61
2021/11/24 01:33:59;;;;;;;6.92;3.35;;;;;;;6.22;52.59;100754.60;1672127;84;21495;-61
2021/11/24 01:36:27;;;;;;;8.40;4.60;;;;;;;6.25;52.23;100755.14;1671428;85;21061;-63
2021/11/24 01:38:55;;;;;;;9.40;4.47;;;;;;;6.04;52.72;100757.11;1672491;85;22331;-62
2021/11/24 01:41:23;;;;;;;8.28;4.25;;;;;;;6.15;52.45;100756.13;1672755;85;21113;-62
2021/11/24 01:43:50;;;;;;;7.28;4.12;;;;;;;6.25;52.21;100764.65;1671586;85;22564;-63
2021/11/24 01:46:17;;;;;;;7.10;4.42;;;;;;;6.35;51.67;100768.02;1672359;85;21498;-62
2021/11/24 01:48:44;;;;;;;7.90;4.53;;;;;;;6.63;50.97;100761.55;1671649;85;21582;-62
2021/11/24 01:51:12;;;;;;;9.35;4.17;;;;;;;6.74;50.59;100758.75;1672705;84;21074;-63
2021/11/24 01:53:39;;;;;;;9.18;3.90;;;;;;;6.86;49.97;100767.98;1660978;85;21012;-65
2021/11/24 01:56:06;;;;;;;6.60;3.85;;;;;;;6.85;49.87;100771.50;1672122;85;21173;-64
2021/11/24 01:58:35;;;;;;;7.97;4.72;;;;;;;7.07;49.39;100768.49;1671975;84;20958;-74
2021/11/24 02:01:04;;;;;;;9.23;4.37;;;;;;;7.09;49.12;100771.44;1672415;84;21010;-64
2021/11/24 02:03:32;;;;;;;7.50;4.10;;;;;;;6.74;49.34;100780.78;1672116;85;21078;-63
2021/11/24 02:05:59;;;;;;;6.33;3.62;;;;;;;6.57;50.20;100781.89;1676400;85;21420;-63
2021/11/24 02:08:27;;;;;;;7.35;3.70;;;;;;;6.19;50.87;100785.46;1680697;85;21155;-63
2021/11/24 02:10:58;;;;;;;9.20;4.12;;;;;;;5.74;51.95;100783.49;1680577;85;20978;-63
2021/11/24 02:13:25;;;;;;;9.95;5.72;;;;;;;5.76;52.17;100787.25;1680830;85;21065;-62
2021/11/24 02:15:52;;;;;;;9.98;6.60;;;;;;;5.72;52.87;100793.63;1680283;85;21037;-61
2021/11/24 02:18:20;;;;;;;8.85;5.53;;;;;;;5.72;53.19;100791.88;1681126;85;21053;-62
2021/11/24 02:20:49;;;;;;;9.28;5.70;;;;;;;5.84;53.53;100795.13;1680170;85;21162;-67
2021/11/24 02:23:16;;;;;;;8.30;4.80;;;;;;;5.97;53.47;100801.32;1680725;85;21100;-62
2021/11/24 02:25:44;;;;;;;7.33;5.08;;;;;;;5.76;53.79;100804.06;1680623;84;20954;-63
2021/11/24 02:28:12;;;;;;;8.10;5.05;;;;;;;6.05;54.19;100811.30;1681253;85;21092;-63
2021/11/24 02:30:39;;;;;;;9.38;5.97;;;;;;;6.26;53.92;100816.78;1681369;85;20974;-67
2021/11/24 02:33:06;;;;;;;9.93;5.92;;;;;;;5.96;54.00;100818.62;1680334;85;21125;-61
2021/11/24 02:35:33;;;;;;;9.48;6.28;;;;;;;6.23;54.15;100817.06;1681185;85;20959;-71
2021/11/24 02:38:03;;;;;;;11.63;6.42;;;;;;;6.18;54.03;100814.09;1681077;83;21025;-64
2021/11/24 02:40:32;;;;;;;11.63;6.70;;;;;;;6.11;54.77;100816.90;1680997;84;21041;-70
2021/11/24 02:43:00;;;;;;;10.78;6.55;;;;;;;5.78;55.07;100821.55;1680646;85;20970;-62
2021/11/24 02:45:27;;;;;;;10.75;6.83;;;;;;;6.33;54.67;100819.96;1681081;85;21251;-68
2021/11/24 02:47:55;;;;;;;13.45;7.40;;;;;;;6.31;54.13;100820.56;1680964;85;21012;-61
2021/11/24 02:50:24;;;;;;;9.40;6.40;;;;;;;6.08;54.82;100817.98;1679696;85;21488;-70
2021/11/24 02:52:51;;;;;;;9.28;6.37;;;;;;;6.19;54.22;100824.30;1681298;85;21088;-62
2021/11/24 02:55:18;;;;;;;9.85;7.20;;;;;;;5.88;55.06;100831.89;1681291;85;21061;-61
2021/11/24 02:57:48;;;;;;;13.58;7.62;;;;;;;6.30;54.34;100834.97;1680089;85;21138;-61
2021/11/24 03:00:25;;;;;;;13.80;6.87;;;;;;;6.18;54.60;100836.91;1680800;85;21618;-69
2021/11/24 03:02:53;;;;;;;9.90;5.10;;;;;;;6.44;53.72;100835.81;1680899;85;21016;-61
2021/11/24 03:05:23;;;;;;;9.48;5.65;;;;;;;5.71;55.03;100838.56;1680877;84;21464;-70
2021/11/24 03:07:50;;;;;;;10.78;6.12;;;;;;;6.06;54.65;100836.25;1681361;85;21097;-61
2021/11/24 03:10:18;;;;;;;9.60;6.28;;;;;;;5.60;55.12;100844.69;1680380;85;21166;-67
2021/11/24 03:12:45;;;;;;;9.23;5.85;;;;;;;5.95;54.76;100845.46;1681086;85;21001;-62
2021/11/24 03:15:13;;;;;;;10.72;6.97;;;;;;;5.74;54.80;100847.34;1680247;83;21148;-71
2021/11/24 03:17:40;;;;;;;9.48;5.85;;;;;;;5.98;54.69;100854.22;1663635;85;21207;-62
2021/11/24 03:20:09;;;;;;;12.60;6.53;;;;;;;5.85;54.90;100849.31;1680778;85;21006;-71
2021/11/24 03:22:36;;;;;;;10.45;6.53;;;;;;;5.94;54.45;100850.27;1679577;85;21874;-62
2021/11/24 03:25:05;;;;;;;8.95;5.70;;;;;;;5.70;55.18;100857.15;1680475;84;20934;-67
2021/11/24 03:27:40;;;;;;;8.53;5.15;;;;;;;5.79;55.14;100858.09;1680720;84;21033;-62
2021/11/24 03:30:13;;;;;;;10.68;5.40;;;;;;;5.81;54.69;100860.08;1680687;85;20923;-62
2021/11/24 03:32:42;;;;;;;8.23;5.50;;;;;;;5.63;55.30;100873.34;1680773;85;20962;-62
2021/11/24 03:35:29;;;;;;;9.23;4.87;;;;;;;5.80;55.01;100867.50;1680733;85;21224;-66
2021/11/24 03:37:57;;;;;;;10.68;5.70;;;;;;;5.70;55.00;100866.69;1689873;83;20964;-61
2021/11/24 03:40:26;;;;;;;7.67;5.33;;;;;;;5.90;54.62;100870.07;1664012;85;21055;-62
2021/11/24 03:42:53;;;;;;;7.70;4.97;;;;;;;6.02;54.41;100870.29;1665855;85;21011;-62
2021/11/24 03:45:28;;;;;;;8.48;5.85;;;;;;;6.05;54.07;100869.53;1669574;85;21090;-62
2021/11/24 03:47:55;;;;;;;9.23;5.95;;;;;;;6.08;53.66;100877.03;1666747;85;21098;-63
2021/11/24 03:50:23;;;;;;;8.73;5.30;;;;;;;6.26;53.25;100875.84;1659232;85;21068;-64
2021/11/24 03:52:52;;;;;;;9.18;6.03;;;;;;;6.44;52.70;100874.66;1658519;85;20979;-62
2021/11/24 03:55:19;;;;;;;8.60;4.60;;;;;;;6.48;52.38;100877.30;1664437;85;21028;-63
2021/11/24 03:57:48;;;;;;;7.50;4.87;;;;;;;6.65;51.95;100882.20;1659106;85;21074;-61
2021/11/24 04:00:19;;;;;;;7.70;4.85;;;;;;;6.49;51.82;100882.80;1671585;84;21093;-70
2021/11/24 04:02:46;;;;;;;8.55;4.53;;;;;;;6.56;51.76;100882.58;1708779;83;21585;-63
2021/11/24 04:05:13;;;;;;;10.23;5.08;;;;;;;6.68;51.36;100892.29;1745280;81;21580;-63
2021/11/24 04:07:42;;;;;;;9.70;4.92;;;;;;;6.96;50.85;100893.11;1690652;84;21598;-63
2021/11/24 04:10:11;;;;;;;9.15;4.67;;;;;;;6.79;50.45;100891.30;1716850;83;21009;-70
2021/11/24 04:12:41;;;;;;;7.90;4.45;;;;;;;6.11;51.71;100894.06;1725565;82;21140;-63
2021/11/24 04:15:10;;;;;;;7.75;4.08;;;;;;;6.29;52.01;100898.06;1724444;83;20999;-64
2021/11/24 04:17:38;;;;;;;8.83;4.75;;;;;;;6.29;51.81;100901.95;1731816;82;21507;-64
2021/11/24 04:20:06;;;;;;;10.08;5.58;;;;;;;6.03;52.37;100905.59;1725150;83;20994;-64
2021/11/24 04:22:33;;;;;;;7.20;4.05;;;;;;;5.99;52.61;100911.52;1725714;83;21528;-64
2021/11/24 04:25:00;;;;;;;11.03;4.80;;;;;;;5.69;53.15;100921.97;1726362;82;22014;-63
2021/11/24 04:27:27;;;;;;;8.28;4.60;;;;;;;5.82;52.97;100931.55;1725180;83;21026;-71
2021/11/24 04:29:54;;;;;;;8.15;4.25;;;;;;;5.78;52.98;100931.48;1723833;83;20962;-68
2021/11/24 04:32:21;;;;;;;9.40;4.80;;;;;;;5.55;53.64;100932.21;1725544;83;21093;-60
2021/11/24 04:34:48;;;;;;;8.60;4.95;;;;;;;5.76;53.59;100941.17;1724526;81;21492;-60
2021/11/24 04:37:17;;;;;;;7.65;4.92;;;;;;;5.43;53.88;100942.33;1724674;82;21545;-60
2021/11/24 04:39:44;;;;;;;8.45;5.03;;;;;;;5.33;54.20;100944.88;1725196;83;21552;-72
2021/11/24 04:42:11;;;;;;;8.10;4.70;;;;;;;5.36;54.18;100952.37;1724889;83;20937;-63
2021/11/24 04:44:40;;;;;;;7.75;4.83;;;;;;;5.52;53.85;100943.62;1692335;83;21065;-65
2021/11/24 04:47:07;;;;;;;7.60;5.10;;;;;;;5.64;53.62;100943.52;1704740;83;20947;-61
2021/11/24 04:49:34;;;;;;;11.40;5.72;;;;;;;5.74;53.36;100953.41;1708798;83;21624;-60
2021/11/24 04:52:02;;;;;;;8.83;5.62;;;;;;;5.88;52.88;100953.50;1689634;83;21560;-60
2021/11/24 04:54:29;;;;;;;9.70;5.53;;;;;;;5.68;52.96;100959.92;1716015;83;21480;-60
2021/11/24 04:56:57;;;;;;;13.25;6.15;;;;;;;5.37;53.59;100964.34;1722562;83;21469;-61
2021/11/24 04:59:24;;;;;;;10.28;5.78;;;;;;;5.57;53.35;100967.82;1716985;83;21450;-61
2021/11/24 05:01:52;;;;;;;12.07;6.45;;;;;;;5.96;52.86;100966.13;1700776;83;21761;-62
2021/11/24 05:04:21;;;;;;;9.65;4.78;;;;;;;5.96;52.57;100966.61;1704275;82;21552;-62
2021/11/24 05:06:48;;;;;;;7.97;4.25;;;;;;;6.02;52.24;100968.63;1709566;82;20972;-64
2021/11/24 05:09:15;;;;;;;8.40;4.87;;;;;;;6.06;51.80;100971.28;1719106;82;21509;-62
2021/11/24 05:11:43;;;;;;;8.35;4.50;;;;;;;6.25;51.15;100970.47;1712954;82;21091;-75
2021/11/24 05:14:17;;;;;;;9.48;5.12;;;;;;;5.47;52.93;100980.72;1719512;82;21134;-64
2021/11/24 05:16:44;;;;;;;9.90;4.25;;;;;;;5.69;52.32;100985.34;1703845;82;20920;-61
2021/11/24 05:19:16;;;;;;;7.28;4.17;;;;;;;5.59;52.47;100989.17;1726251;82;20941;-61
2021/11/24 05:21:40;;;;;;;6.25;3.75;;;;;;;5.63;52.34;100991.03;1692866;82;20988;-62
2021/11/24 05:24:08;;;;;;;8.03;3.55;;;;;;;5.94;51.86;100993.89;1716125;81;21025;-61
2021/11/24 05:26:37;;;;;;;5.62;3.25;;;;;;;6.15;50.85;100996.85;1713192;81;21139;-60
2021/11/24 05:29:05;;;;;;;5.67;3.40;;;;;;;6.92;50.29;100995.44;1708221;81;20943;-76
2021/11/24 05:31:32;;;;;;;9.00;4.53;;;;;;;7.24;49.95;101001.55;1714970;83;21583;-64
2021/11/24 05:34:03;;;;;;;7.37;4.47;;;;;;;8.00;48.96;101004.34;1693285;83;21472;-61
2021/11/24 05:36:30;;;;;;;9.50;4.58;;;;;;;8.75;47.90;101007.39;1735605;82;21114;-62
2021/11/24 05:38:57;;;;;;;8.35;4.62;;;;;;;9.14;47.50;101014.30;1722920;83;21134;-71
2021/11/24 05:41:25;;;;;;;9.08;4.55;;;;;;;9.44;46.37;101024.68;1725533;83;21031;-69
2021/11/24 05:44:03;;;;;;;7.17;4.03;;;;;;;10.26;44.02;101025.38;1724276;83;21224;-62
2021/11/24 05:46:39;;;;;;;8.35;3.90;;;;;;;10.51;42.48;101028.82;1723863;83;21050;-63
2021/11/24 05:48:52;;;;;;;6.08;3.47;;;;;;;11.10;40.71;101029.36;1721272;83;21021;-71
2021/11/24 05:51:19;;;;;;;5.33;3.35;;;;;;;11.56;39.67;101030.86;1723517;83;21141;-76
2021/11/24 05:53:46;;;;;;;5.40;3.15;;;;;;;12.08;38.42;101032.36;1725083;81;22124;-61
2021/11/24 05:56:13;;;;;;;5.17;3.67;;;;;;;11.93;37.15;101036.24;1725806;83;21011;-64
2021/11/24 05:58:41;;;;;;;5.90;3.45;;;;;;;12.43;36.49;101041.13;1686896;84;21002;-60
2021/11/24 06:01:08;;;;;;;5.22;2.92;;;;;;;12.30;36.16;101046.42;1717007;82;20926;-78
2021/11/24 06:03:36;;;;;;;6.00;3.33;;;;;;;12.21;36.07;101047.98;1729269;82;22181;-62
2021/11/24 06:06:03;;;;;;;5.78;3.08;;;;;;;12.59;35.85;101048.83;1722278;83;21002;-62
2021/11/24 06:08:32;;;;;;;6.92;3.65;;;;;;;8.77;40.56;101066.06;1723354;83;21087;-62
2021/11/24 06:11:00;;;;;;;7.50;3.12;;;;;;;8.53;41.46;101071.89;1724356;83;20943;-80
2021/11/24 06:13:28;;;;;;;5.45;3.02;;;;;;;8.66;41.10;101070.69;1723105;83;21141;-64
2021/11/24 06:15:55;;;;;;;4.95;2.72;;;;;;;9.15;40.53;101069.24;1724188;83;21532;-62
2021/11/24 06:18:22;;;;;;;5.83;2.70;;;;;;;9.37;40.37;101068.39;1723457;82;21021;-61
2021/11/24 06:20:50;;;;;;;7.50;3.22;;;;;;;9.57;39.33;101074.98;1724266;83;21544;-64
2021/11/24 06:23:17;;;;;;;7.73;3.30;;;;;;;9.63;39.50;101078.28;1722361;83;21433;-71
2021/11/24 06:25:45;;;;;;;6.60;3.53;;;;;;;9.83;38.60;101080.13;1724304;83;21369;-64
2021/11/24 06:28:14;;;;;;;9.20;5.13;;;;;;;9.97;38.37;101078.23;1723907;81;22243;-63
2021/11/24 06:30:42;;;;;;;13.30;7.20;;;;;;;10.26;38.17;101081.41;1724700;83;21764;-61
2021/11/24 06:33:11;;;;;;;12.10;5.90;;;;;;;10.63;37.36;101082.25;1723145;83;21341;-78
2021/11/24 06:35:39;;;;;;;5.80;2.93;;;;;;;10.74;36.87;101076.71;1724321;81;21235;-63
2021/11/24 06:38:07;;;;;;;4.73;2.90;;;;;;;10.98;36.36;101082.88;1722740;83;21161;-61
2021/11/24 06:40:34;;;;;;;8.30;4.67;;;;;;;11.45;36.02;101081.15;1722602;81;21242;-62
2021/11/24 06:43:01;;;;;;;5.30;3.70;;;;;;;11.45;36.02;101081.15;1722001;83;21847;-66
2021/11/24 06:45:28;;;;;;;5.90;4.20;;;;;;;11.85;35.44;101080.67;1728787;81;21522;-76
2021/11/24 06:47:56;;;;;;;21.87;10.40;;;;;;;13.43;33.61;101079.58;1725084;83;22092;-61
2021/11/24 06:50:23;;;;;;;16.37;9.07;;;;;;;13.00;33.70;101087.21;1730374;82;21759;-61
2021/11/24 06:52:51;;;;;;;8.57;5.40;;;;;;;13.05;33.50;101090.59;1725933;81;22243;-62
2021/11/24 06:55:18;;;;;;;6.37;4.33;;;;;;;13.35;33.16;101087.53;1727399;82;21670;-69
2021/11/24 06:57:47;;;;;;;7.10;3.67;;;;;;;13.32;32.75;101100.48;1726591;82;21825;-62
2021/11/24 07:00:16;;;;;;;5.00;3.10;;;;;;;13.27;33.03;101105.45;1732497;82;22147;-62
2021/11/24 07:02:45;;;;;;;6.03;3.37;;;;;;;13.77;31.83;101109.64;1724847;82;21707;-60
2021/11/24 07:05:13;;;;;;;7.93;4.20;;;;;;;13.62;31.56;101110.96;1716560;81;21682;-75
2021/11/24 07:07:41;;;;;;;9.87;4.77;;;;;;;13.59;31.31;101107.39;1722420;81;22721;-60
2021/11/24 07:10:09;;;;;;;7.20;4.30;;;;;;;14.84;29.60;101113.16;1696146;83;22273;-62
2021/11/24 07:12:38;;;;;;;7.83;4.77;;;;;;;14.87;28.84;101104.11;1714290;81;22185;-61
2021/11/24 07:15:06;;;;;;;14.33;9.47;;;;;;;15.09;28.17;101108.81;1715200;83;22489;-74
2021/11/24 07:17:33;;;;;;;11.37;7.70;;;;;;;15.28;27.87;101113.89;1713076;83;21757;-76
2021/11/24 07:20:03;;;;;;;9.40;5.93;;;;;;;16.15;27.27;101104.08;1718027;83;21663;-61
2021/11/24 07:22:30;;;;;;;8.53;3.43;;;;;;;16.42;26.43;101102.30;1718932;82;21776;-62
2021/11/24 07:24:58;;;;;;;8.63;4.97;;;;;;;16.15;26.50;101109.34;1722595;83;22242;-61
2021/11/24 07:27:25;;;;;;;6.63;3.77;;;;;;;16.15;26.50;101109.34;1714974;81;23006;-77
2021/11/24 07:29:53;;;;;;;7.50;4.87;;;;;;;16.63;26.11;101116.28;1717339;81;23446;-66
2021/11/24 07:32:20;;;;;;;4.03;1.93;;;;;;;16.84;25.16;101119.27;1720689;81;21775;-66
2021/11/24 07:34:47;;;;;;;3.23;1.73;;;;;;;16.84;25.16;101119.27;1707225;81;21015;-63
2021/11/24 07:37:15;;;;;;;14.47;8.73;;;;;;;16.96;24.19;101126.85;1712952;83;21069;-63
2021/11/24 07:39:42;;;;;;;6.30;3.40;;;;;;;16.68;24.10;101126.53;1712612;81;21050;-61
2021/11/24 07:42:10;;;;;;;6.73;2.60;;;;;;;16.34;24.14;101116.16;1714031;83;22616;-64
2021/11/24 07:44:38;;;;;;;4.07;1.80;;;;;;;15.54;24.49;101127.18;1740302;81;21616;-60
2021/11/24 07:47:06;;;;;;;3.63;1.67;;;;;;;15.35;24.40;101136.27;1732050;81;21796;-61
2021/11/24 07:49:35;;;;;;;5.00;2.17;;;;;;;15.35;24.40;101213.77;1682372;85;21684;-80
2021/11/24 07:52:03;;;;;;;4.57;2.20;;;;;;;14.92;25.56;101145.53;1724060;83;21771;-64
2021/11/24 07:54:31;;;;;;;6.00;4.47;;;;;;;15.76;24.97;101133.69;1713460;83;21715;-59
2021/11/24 07:56:59;;;;;;;4.97;3.40;;;;;;;16.15;24.47;101133.53;1713848;83;21673;-65
2021/11/24 07:59:27;;;;;;;7.23;3.60;;;;;;;15.91;24.19;101133.53;1712756;83;21778;-71
2021/11/24 08:01:57;;;;;;;3.87;1.90;;;;;;;15.55;25.10;101142.44;1715387;82;21756;-61
2021/11/24 08:04:24;;;;;;;4.07;1.87;;;;;;;16.39;24.95;101134.79;1713420;82;22415;-60
2021/11/24 08:06:53;;;;;;;3.27;2.10;;;;;;;16.39;24.95;101134.79;1685722;83;21175;-68
2021/11/24 08:09:21;;;;;;;3.07;1.73;;;;;;;16.74;24.54;101137.61;1721716;81;20956;-60
2021/11/24 08:11:48;;;;;;;2.97;1.40;;;;;;;17.02;24.37;101140.02;1711196;81;21567;-62
2021/11/24 08:14:15;;;;;;;3.47;2.00;;;;;;;17.41;24.14;101141.48;1720893;81;21133;-60
2021/11/24 08:16:45;;;;;;;3.00;1.77;;;;;;;17.17;24.11;101142.45;1713339;82;21011;-61
2021/11/24 08:19:12;;;;;;;3.50;1.70;;;;;;;17.32;24.01;101142.73;1715078;83;21152;-71
2021/11/24 08:21:40;;;;;;;3.80;2.20;;;;;;;17.18;24.12;101138.79;1713615;82;21482;-68
2021/11/24 08:24:07;;;;;;;4.00;2.30;;;;;;;17.09;23.96;101146.61;1715480;81;21450;-65
2021/11/24 08:26:35;;;;;;;27.77;8.80;;;;;;;17.35;23.82;101138.34;1699652;83;21157;-61
2021/11/24 08:29:02;;;;;;;7.97;4.20;;;;;;;17.84;23.05;101142.29;1722969;83;21010;-61
2021/11/24 08:31:29;;;;;;;5.47;3.27;;;;;;;17.85;22.61;101143.42;1715331;82;21134;-75
2021/11/24 08:33:57;;;;;;;3.70;2.50;;;;;;;16.59;23.05;101144.83;1715306;83;21009;-61
2021/11/24 08:36:24;;;;;;;4.67;2.70;;;;;;;16.07;23.89;101154.23;1715783;83;21098;-63
2021/11/24 08:38:51;;;;;;;6.20;2.70;;;;;;;15.93;24.01;101146.80;1716736;83;21050;-66
2021/11/24 08:41:18;;;;;;;5.00;2.83;;;;;;;15.69;24.09;101140.23;1716016;83;21015;-63
2021/11/24 08:43:45;;;;;;;3.70;2.50;;;;;;;15.62;23.80;101150.37;1715248;83;22039;-77
2021/11/24 08:46:15;;;;;;;6.10;3.73;;;;;;;15.50;24.20;101144.84;1715565;83;21018;-62
2021/11/24 08:48:42;;;;;;;3.53;2.40;;;;;;;15.50;24.20;101144.84;1717627;82;21061;-62
2021/11/24 08:51:09;;;;;;;5.20;3.17;;;;;;;16.21;23.25;101138.81;1715696;81;21010;-62
2021/11/24 08:53:37;;;;;;;8.13;4.47;;;;;;;16.82;21.84;101133.97;1715703;81;21083;-77
2021/11/24 08:56:05;;;;;;;4.77;2.50;;;;;;;16.31;21.96;101138.41;1714086;81;21682;-67
2021/11/24 08:58:33;;;;;;;3.37;1.97;;;;;;;16.23;22.30;101137.28;1719943;82;22303;-63
2021/11/24 09:01:01;;;;;;;5.13;2.57;;;;;;;16.03;22.48;101137.23;1721445;83;21865;-61
2021/11/24 09:03:28;;;;;;;3.30;1.80;;;;;;;16.10;22.36;101140.70;1721113;81;21691;-74
2021/11/24 09:05:56;;;;;;;4.47;2.27;;;;;;;16.44;22.00;101134.51;1720660;81;21837;-73
2021/11/24 09:08:28;;;;;;;4.53;2.67;;;;;;;16.50;21.64;101135.00;1723119;81;21781;-62
2021/11/24 09:10:56;;;;;;;4.90;2.90;;;;;;;16.24;21.52;101133.64;1723277;81;21686;-64
2021/11/24 09:13:25;;;;;;;3.37;1.80;;;;;;;16.02;22.02;101136.91;1723785;83;21682;-62
2021/11/24 09:15:52;;;;;;;3.20;2.00;;;;;;;15.94;22.08;101133.14;1721652;81;21271;-62
2021/11/24 09:18:19;;;;;;;3.43;1.77;;;;;;;16.23;22.14;101135.46;1720655;83;22024;-64
2021/11/24 09:20:47;;;;;;;3.33;1.90;;;;;;;16.44;21.99;101137.14;1722589;83;22072;-62
2021/11/24 09:23:18;;;;;;;4.30;2.63;;;;;;;16.42;21.60;101130.45;1723074;83;21544;-65
2021/11/24 09:25:51;;;;;;;;;;;;;;;16.45;21.83;101136.13;1724910;83;21368;-74
2021/11/24 09:28:15;;;;;;;3.50;1.60;;;;;;;16.55;21.67;101146.24;1720340;81;20215;-64
2021/11/24 09:30:42;;;;;;;2.83;1.43;;;;;;;16.36;21.81;101141.76;1723207;81;21436;-63
2021/11/24 09:33:10;;;;;;;2.90;1.40;;;;;;;16.60;21.45;101146.47;1723902;83;21243;-65
2021/11/24 09:35:38;;;;;;;2.87;1.50;;;;;;;16.64;21.47;101138.47;1724214;83;21269;-62
2021/11/24 09:38:07;;;;;;;3.47;1.60;;;;;;;16.76;21.27;101150.05;1724347;83;21210;-72
2021/11/24 09:40:35;;;;;;;3.20;1.83;;;;;;;17.13;21.17;101148.34;1724572;81;21070;-65
2021/11/24 09:43:06;;;;;;;3.40;1.73;;;;;;;17.08;20.92;101146.29;1720037;83;21233;-65
2021/11/24 09:45:37;;;;;;;4.62;1.87;;;;;;;17.11;21.11;101152.98;1724783;83;21181;-65
2021/11/24 09:48:05;;;;;;;3.90;2.27;;;;;;;16.97;21.08;101152.17;1723651;83;21619;-67
2021/11/24 09:50:36;;;;;;;3.40;1.63;;;;;;;16.90;21.25;101152.70;1723470;83;21297;-62
2021/11/24 09:53:03;;;;;;;3.07;1.50;;;;;;;16.98;20.83;101153.30;1723308;81;21189;-63
2021/11/24 09:55:34;;;;;;;4.97;1.93;;;;;;;16.71;21.01;101164.30;1723141;83;21293;-65
2021/11/24 09:58:00;;;;;;;4.33;1.63;;;;;;;16.36;21.14;101161.49;1722537;81;21766;-63
2021/11/24 10:00:28;;;;;;;3.93;1.90;;;;;;;16.37;20.71;101160.00;1722013;81;21868;-63
2021/11/24 10:02:57;;;;;;;3.60;2.00;;;;;;;16.17;20.90;101165.17;1727368;81;21340;-61
2021/11/24 10:05:28;;;;;;;3.87;2.10;;;;;;;16.07;21.29;101157.38;1741452;81;21309;-65
2021/11/24 10:07:55;;;;;;;3.45;1.70;;;;;;;15.79;21.71;101165.63;1743969;82;21766;-62
2021/11/24 10:10:22;;;;;;;4.07;1.90;;;;;;;15.92;21.54;101153.58;1743452;81;22445;-72
2021/11/24 10:12:50;;;;;;;2.93;1.60;;;;;;;16.15;21.46;101154.06;1740656;81;21307;-63
2021/11/24 10:15:42;;;;;;;3.57;1.90;;;;;;;16.26;21.05;101149.54;1745756;82;21611;-62
2021/11/24 10:18:25;;;;;;;3.22;1.67;;;;;;;15.95;21.38;101155.82;1741751;81;22524;-72
2021/11/24 10:21:10;;;;;;;3.53;1.40;;;;;;;15.66;21.17;101165.58;1743284;82;21040;-61
2021/11/24 10:23:46;;;;;;;3.97;2.00;;;;;;;14.64;21.97;101162.56;1746323;82;22154;-63
2021/11/24 10:26:35;;;;;;;3.50;1.60;;;;;;;14.70;22.29;101168.35;1746536;82;21255;-62
2021/11/24 10:29:11;;;;;;;3.13;1.57;;;;;;;14.67;22.76;101166.94;1744206;81;21149;-65
2021/11/24 10:31:54;;;;;;;3.43;1.70;;;;;;;14.48;22.89;101160.46;1745727;82;21398;-68
2021/11/24 10:34:29;;;;;;;3.80;1.50;;;;;;;14.40;23.07;101163.71;1734312;82;21247;-64
2021/11/24 10:37:12;;;;;;;3.97;2.60;;;;;;;14.36;23.37;101163.27;1733205;82;21869;-63
2021/11/24 10:39:47;;;;;;;9.63;4.73;;;;;;;14.16;23.56;101171.39;1737776;82;22695;-64
2021/11/24 10:42:24;;;;;;;10.93;4.47;;;;;;;14.23;23.22;101165.23;1733263;82;21433;-63
2021/11/24 10:44:54;;;;;;;4.80;2.67;;;;;;;14.10;23.17;101173.77;1737214;82;22562;-65
2021/11/24 10:47:21;;;;;;;2.67;1.40;;;;;;;14.42;22.68;101166.94;1736591;81;22139;-63
2021/11/24 10:49:52;;;;;;;5.13;1.70;;;;;;;13.68;22.70;101161.34;1737347;82;21163;-61
2021/11/24 10:52:26;;;;;;;5.47;2.97;;;;;;;13.62;23.06;101158.12;1735653;82;21695;-64
2021/11/24 10:55:14;;;;;;;5.53;2.90;;;;;;;13.24;23.98;101166.53;1736439;82;21324;-62
2021/11/24 10:57:48;;;;;;;5.53;2.15;;;;;;;13.44;23.90;101166.31;1732070;81;21278;-62
2021/11/24 11:00:18;;;;;;;14.57;7.13;;;;;;;13.63;23.99;101164.97;1726449;82;21038;-73
2021/11/24 11:02:46;;;;;;;10.77;4.53;;;;;;;14.14;23.53;101164.23;1732602;82;21383;-65
2021/11/24 11:05:27;;;;;;;5.07;2.57;;;;;;;14.19;23.52;101166.59;1666120;84;21295;-62
2021/11/24 11:07:59;;;;;;;3.65;1.70;;;;;;;13.79;23.12;101170.05;1672681;85;21248;-74
2021/11/24 11:10:34;;;;;;;10.03;4.30;;;;;;;13.72;23.21;101168.34;1661712;84;21109;-61
2021/11/24 11:13:07;;;;;;;5.85;2.50;;;;;;;13.69;23.20;101162.14;1672907;84;21362;-61
2021/11/24 11:15:42;;;;;;;4.05;1.90;;;;;;;13.48;23.52;101164.97;1663009;84;21862;-61
2021/11/24 11:18:24;;;;;;;10.17;1.80;;;;;;;13.36;23.55;101158.05;1670700;84;21014;-62
2021/11/24 11:21:02;;;;;;;3.08;1.77;;;;;;;13.68;23.39;101157.41;1665611;84;21272;-62
2021/11/24 11:23:48;;;;;;;5.30;2.20;;;;;;;13.63;23.41;101168.41;1657083;86;21049;-62
2021/11/24 11:26:20;;;;;;;5.12;3.37;;;;;;;13.34;23.57;101169.71;1658831;86;21070;-63
2021/11/24 11:28:52;;;;;;;6.97;3.00;;;;;;;13.19;23.42;101172.77;1689510;84;21047;-70
2021/11/24 11:31:22;;;;;;;7.95;3.25;;;;;;;12.95;23.96;101179.01;1692610;83;27171;-60
2021/11/24 11:33:52;;;;;;;3.70;1.90;;;;;;;13.31;23.70;101172.69;1676668;83;21572;-61
2021/11/24 11:36:21;;;;;;;6.55;2.65;;;;;;;13.41;23.70;101171.94;1678483;84;21063;-61